sensor_id;sensor_type;location;lat;lon;timestamp;P1;durP1;ratioP1;P2;durP2;ratioP2
24585;SDS011;12743;52.262;6.172;2023-11-21T00:02:17;30.90;;;12.52;;
24585;SDS011;12743;52.262;6.172;2023-11-21T00:04:44;31.02;;;12.82;;
24585;SDS011;12743;52.262;6.172;2023-11-21T00:07:12;32.47;;;12.77;;
24585;SDS011;12743;52.262;6.172;2023-11-21T00:09:38;34.47;;;12.98;;
24585;SDS011;12743;52.262;6.172;2023-11-21T00:12:05;31.20;;;12.13;;
24585;SDS011;12743;52.262;6.172;2023-11-21T00:14:32;34.17;;;12.77;;
24585;SDS011;12743;52.262;6.172;2023-11-21T00:16:59;28.65;;;12.05;;
24585;SDS011;12743;52.262;6.172;2023-11-21T00:19:26;25.48;;;11.10;;
24585;SDS011;12743;52.262;6.172;2023-11-21T00:21:53;27.63;;;11.32;;
24585;SDS011;12743;52.262;6.172;2023-11-21T00:24:19;30.47;;;12.00;;
24585;SDS011;12743;52.262;6.172;2023-11-21T00:26:46;28.33;;;12.15;;
24585;SDS011;12743;52.262;6.172;2023-11-21T00:29:15;29.95;;;12.57;;
24585;SDS011;12743;52.262;6.172;2023-11-21T00:31:44;29.25;;;12.10;;
24585;SDS011;12743;52.262;6.172;2023-11-21T00:34:11;30.60;;;12.57;;
24585;SDS011;12743;52.262;6.172;2023-11-21T00:36:38;30.97;;;12.60;;
24585;SDS011;12743;52.262;6.172;2023-11-21T00:39:05;24.58;;;11.38;;
24585;SDS011;12743;52.262;6.172;2023-11-21T00:41:33;29.25;;;11.38;;
24585;SDS011;12743;52.262;6.172;2023-11-21T00:44:00;33.88;;;13.20;;
24585;SDS011;12743;52.262;6.172;2023-11-21T00:46:27;27.92;;;12.15;;
24585;SDS011;12743;52.262;6.172;2023-11-21T00:48:55;29.70;;;12.50;;
24585;SDS011;12743;52.262;6.172;2023-11-21T00:51:22;35.88;;;12.50;;
24585;SDS011;12743;52.262;6.172;2023-11-21T00:53:49;35.03;;;12.43;;
24585;SDS011;12743;52.262;6.172;2023-11-21T00:56:16;37.80;;;12.38;;
24585;SDS011;12743;52.262;6.172;2023-11-21T00:58:43;32.17;;;12.25;;
24585;SDS011;12743;52.262;6.172;2023-11-21T01:01:12;30.43;;;12.50;;
24585;SDS011;12743;52.262;6.172;2023-11-21T01:03:39;34.08;;;13.07;;
24585;SDS011;12743;52.262;6.172;2023-11-21T01:06:06;35.75;;;13.32;;
24585;SDS011;12743;52.262;6.172;2023-11-21T01:08:33;32.20;;;13.38;;
24585;SDS011;12743;52.262;6.172;2023-11-21T01:11:00;37.53;;;13.90;;
24585;SDS011;12743;52.262;6.172;2023-11-21T01:13:27;36.20;;;13.57;;
24585;SDS011;12743;52.262;6.172;2023-11-21T01:15:54;30.48;;;12.93;;
24585;SDS011;12743;52.262;6.172;2023-11-21T01:18:21;30.85;;;12.77;;
24585;SDS011;12743;52.262;6.172;2023-11-21T01:20:48;39.22;;;13.60;;
24585;SDS011;12743;52.262;6.172;2023-11-21T01:23:15;40.80;;;14.00;;
24585;SDS011;12743;52.262;6.172;2023-11-21T01:25:42;34.87;;;14.13;;
24585;SDS011;12743;52.262;6.172;2023-11-21T01:28:08;41.22;;;14.10;;
24585;SDS011;12743;52.262;6.172;2023-11-21T01:30:35;35.83;;;13.38;;
24585;SDS011;12743;52.262;6.172;2023-11-21T01:33:02;33.13;;;12.52;;
24585;SDS011;12743;52.262;6.172;2023-11-21T01:35:30;35.70;;;13.02;;
24585;SDS011;12743;52.262;6.172;2023-11-21T01:37:56;37.20;;;15.13;;
24585;SDS011;12743;52.262;6.172;2023-11-21T01:40:23;40.92;;;14.75;;
24585;SDS011;12743;52.262;6.172;2023-11-21T01:42:52;39.35;;;15.10;;
24585;SDS011;12743;52.262;6.172;2023-11-21T01:45:19;44.78;;;15.02;;
24585;SDS011;12743;52.262;6.172;2023-11-21T01:47:46;48.33;;;16.58;;
24585;SDS011;12743;52.262;6.172;2023-11-21T01:50:13;46.47;;;15.63;;
24585;SDS011;12743;52.262;6.172;2023-11-21T01:52:43;53.65;;;17.02;;
24585;SDS011;12743;52.262;6.172;2023-11-21T01:55:10;51.15;;;15.90;;
24585;SDS011;12743;52.262;6.172;2023-11-21T01:57:44;49.55;;;16.25;;
24585;SDS011;12743;52.262;6.172;2023-11-21T02:00:12;51.60;;;16.85;;
24585;SDS011;12743;52.262;6.172;2023-11-21T02:02:43;48.27;;;16.60;;
24585;SDS011;12743;52.262;6.172;2023-11-21T02:05:14;50.85;;;17.10;;
24585;SDS011;12743;52.262;6.172;2023-11-21T02:07:41;54.15;;;16.55;;
24585;SDS011;12743;52.262;6.172;2023-11-21T02:10:11;49.42;;;16.02;;
24585;SDS011;12743;52.262;6.172;2023-11-21T02:12:41;52.38;;;15.52;;
24585;SDS011;12743;52.262;6.172;2023-11-21T02:15:09;46.47;;;16.47;;
24585;SDS011;12743;52.262;6.172;2023-11-21T02:17:41;55.65;;;17.67;;
24585;SDS011;12743;52.262;6.172;2023-11-21T02:20:10;50.42;;;16.15;;
24585;SDS011;12743;52.262;6.172;2023-11-21T02:22:42;49.35;;;15.20;;
24585;SDS011;12743;52.262;6.172;2023-11-21T02:25:28;46.30;;;15.50;;
24585;SDS011;12743;52.262;6.172;2023-11-21T02:27:59;50.90;;;15.97;;
24585;SDS011;12743;52.262;6.172;2023-11-21T02:30:27;53.00;;;16.40;;
24585;SDS011;12743;52.262;6.172;2023-11-21T02:32:54;49.92;;;15.85;;
24585;SDS011;12743;52.262;6.172;2023-11-21T02:35:24;48.65;;;15.75;;
24585;SDS011;12743;52.262;6.172;2023-11-21T02:37:54;44.35;;;15.45;;
24585;SDS011;12743;52.262;6.172;2023-11-21T02:40:21;45.77;;;16.10;;
24585;SDS011;12743;52.262;6.172;2023-11-21T02:42:48;51.15;;;15.80;;
24585;SDS011;12743;52.262;6.172;2023-11-21T02:45:18;50.00;;;15.82;;
24585;SDS011;12743;52.262;6.172;2023-11-21T02:47:47;49.60;;;15.77;;
24585;SDS011;12743;52.262;6.172;2023-11-21T02:50:15;45.80;;;15.15;;
24585;SDS011;12743;52.262;6.172;2023-11-21T02:52:41;48.37;;;14.50;;
24585;SDS011;12743;52.262;6.172;2023-11-21T02:55:08;48.00;;;15.95;;
24585;SDS011;12743;52.262;6.172;2023-11-21T02:57:35;52.70;;;15.85;;
24585;SDS011;12743;52.262;6.172;2023-11-21T03:00:02;46.83;;;15.52;;
24585;SDS011;12743;52.262;6.172;2023-11-21T03:02:29;50.08;;;14.35;;
24585;SDS011;12743;52.262;6.172;2023-11-21T03:04:56;52.87;;;16.63;;
24585;SDS011;12743;52.262;6.172;2023-11-21T03:07:23;45.03;;;16.13;;
24585;SDS011;12743;52.262;6.172;2023-11-21T03:09:50;45.13;;;14.75;;
24585;SDS011;12743;52.262;6.172;2023-11-21T03:12:17;47.17;;;15.55;;
24585;SDS011;12743;52.262;6.172;2023-11-21T03:14:44;45.10;;;15.57;;
24585;SDS011;12743;52.262;6.172;2023-11-21T03:17:10;44.33;;;15.17;;
24585;SDS011;12743;52.262;6.172;2023-11-21T03:19:37;45.55;;;14.98;;
24585;SDS011;12743;52.262;6.172;2023-11-21T03:22:04;40.08;;;13.70;;
24585;SDS011;12743;52.262;6.172;2023-11-21T03:24:31;33.75;;;12.93;;
24585;SDS011;12743;52.262;6.172;2023-11-21T03:26:58;38.22;;;14.07;;
24585;SDS011;12743;52.262;6.172;2023-11-21T03:29:25;38.87;;;12.63;;
24585;SDS011;12743;52.262;6.172;2023-11-21T03:31:52;35.22;;;14.00;;
24585;SDS011;12743;52.262;6.172;2023-11-21T03:34:23;41.42;;;13.85;;
24585;SDS011;12743;52.262;6.172;2023-11-21T03:36:53;38.78;;;13.57;;
24585;SDS011;12743;52.262;6.172;2023-11-21T03:39:20;39.63;;;14.27;;
24585;SDS011;12743;52.262;6.172;2023-11-21T03:41:48;40.20;;;13.40;;
24585;SDS011;12743;52.262;6.172;2023-11-21T03:44:15;40.47;;;13.68;;
24585;SDS011;12743;52.262;6.172;2023-11-21T03:46:41;40.08;;;14.43;;
24585;SDS011;12743;52.262;6.172;2023-11-21T03:49:10;37.72;;;13.10;;
24585;SDS011;12743;52.262;6.172;2023-11-21T03:51:37;39.05;;;14.23;;
24585;SDS011;12743;52.262;6.172;2023-11-21T03:54:04;40.53;;;14.13;;
24585;SDS011;12743;52.262;6.172;2023-11-21T03:56:30;41.22;;;14.55;;
24585;SDS011;12743;52.262;6.172;2023-11-21T03:58:57;43.53;;;14.05;;
24585;SDS011;12743;52.262;6.172;2023-11-21T04:01:24;38.63;;;13.93;;
24585;SDS011;12743;52.262;6.172;2023-11-21T04:03:51;41.90;;;14.32;;
24585;SDS011;12743;52.262;6.172;2023-11-21T04:06:18;41.83;;;14.33;;
24585;SDS011;12743;52.262;6.172;2023-11-21T04:08:44;45.67;;;14.38;;
24585;SDS011;12743;52.262;6.172;2023-11-21T04:11:12;42.55;;;14.02;;
24585;SDS011;12743;52.262;6.172;2023-11-21T04:13:39;47.63;;;14.18;;
24585;SDS011;12743;52.262;6.172;2023-11-21T04:16:06;43.53;;;14.00;;
24585;SDS011;12743;52.262;6.172;2023-11-21T04:18:35;40.43;;;13.47;;
24585;SDS011;12743;52.262;6.172;2023-11-21T04:21:03;45.83;;;15.02;;
24585;SDS011;12743;52.262;6.172;2023-11-21T04:23:31;47.17;;;14.40;;
24585;SDS011;12743;52.262;6.172;2023-11-21T04:25:58;40.13;;;13.75;;
24585;SDS011;12743;52.262;6.172;2023-11-21T04:28:25;40.33;;;14.05;;
24585;SDS011;12743;52.262;6.172;2023-11-21T04:30:52;41.13;;;14.13;;
24585;SDS011;12743;52.262;6.172;2023-11-21T04:33:18;38.70;;;13.02;;
24585;SDS011;12743;52.262;6.172;2023-11-21T04:35:45;35.97;;;12.13;;
24585;SDS011;12743;52.262;6.172;2023-11-21T04:38:12;40.13;;;12.85;;
24585;SDS011;12743;52.262;6.172;2023-11-21T04:40:39;45.15;;;13.52;;
24585;SDS011;12743;52.262;6.172;2023-11-21T04:43:06;34.73;;;12.53;;
24585;SDS011;12743;52.262;6.172;2023-11-21T04:45:32;43.17;;;14.73;;
24585;SDS011;12743;52.262;6.172;2023-11-21T04:47:59;37.13;;;13.45;;
24585;SDS011;12743;52.262;6.172;2023-11-21T04:50:26;44.22;;;14.27;;
24585;SDS011;12743;52.262;6.172;2023-11-21T04:52:53;46.50;;;13.77;;
24585;SDS011;12743;52.262;6.172;2023-11-21T04:55:20;43.33;;;13.50;;
24585;SDS011;12743;52.262;6.172;2023-11-21T04:57:47;44.90;;;13.57;;
24585;SDS011;12743;52.262;6.172;2023-11-21T05:00:14;44.17;;;12.77;;
24585;SDS011;12743;52.262;6.172;2023-11-21T05:02:42;50.60;;;13.90;;
24585;SDS011;12743;52.262;6.172;2023-11-21T05:05:11;44.90;;;13.85;;
24585;SDS011;12743;52.262;6.172;2023-11-21T05:07:39;52.80;;;14.77;;
24585;SDS011;12743;52.262;6.172;2023-11-21T05:10:06;47.20;;;14.35;;
24585;SDS011;12743;52.262;6.172;2023-11-21T05:12:36;45.45;;;14.55;;
24585;SDS011;12743;52.262;6.172;2023-11-21T05:15:04;44.90;;;14.32;;
24585;SDS011;12743;52.262;6.172;2023-11-21T05:17:38;45.67;;;14.93;;
24585;SDS011;12743;52.262;6.172;2023-11-21T05:20:10;43.13;;;14.47;;
24585;SDS011;12743;52.262;6.172;2023-11-21T05:22:38;43.53;;;13.55;;
24585;SDS011;12743;52.262;6.172;2023-11-21T05:25:05;46.25;;;13.50;;
24585;SDS011;12743;52.262;6.172;2023-11-21T05:27:34;47.70;;;14.80;;
24585;SDS011;12743;52.262;6.172;2023-11-21T05:30:02;46.83;;;15.52;;
24585;SDS011;12743;52.262;6.172;2023-11-21T05:32:32;60.33;;;15.93;;
24585;SDS011;12743;52.262;6.172;2023-11-21T05:34:59;55.95;;;15.75;;
24585;SDS011;12743;52.262;6.172;2023-11-21T05:37:26;56.20;;;16.08;;
24585;SDS011;12743;52.262;6.172;2023-11-21T05:39:53;52.10;;;15.30;;
24585;SDS011;12743;52.262;6.172;2023-11-21T05:42:22;53.00;;;15.45;;
24585;SDS011;12743;52.262;6.172;2023-11-21T05:44:49;50.30;;;14.23;;
24585;SDS011;12743;52.262;6.172;2023-11-21T05:47:16;55.38;;;15.18;;
24585;SDS011;12743;52.262;6.172;2023-11-21T05:49:44;50.17;;;14.23;;
24585;SDS011;12743;52.262;6.172;2023-11-21T05:52:12;54.72;;;15.40;;
24585;SDS011;12743;52.262;6.172;2023-11-21T05:54:38;52.42;;;14.50;;
24585;SDS011;12743;52.262;6.172;2023-11-21T05:57:05;49.13;;;15.77;;
24585;SDS011;12743;52.262;6.172;2023-11-21T05:59:31;56.40;;;14.93;;
24585;SDS011;12743;52.262;6.172;2023-11-21T06:01:58;49.22;;;14.90;;
24585;SDS011;12743;52.262;6.172;2023-11-21T06:04:25;51.17;;;14.85;;
24585;SDS011;12743;52.262;6.172;2023-11-21T06:06:52;50.83;;;14.70;;
24585;SDS011;12743;52.262;6.172;2023-11-21T06:09:20;51.57;;;15.80;;
24585;SDS011;12743;52.262;6.172;2023-11-21T06:11:47;50.25;;;15.00;;
24585;SDS011;12743;52.262;6.172;2023-11-21T06:14:14;52.92;;;14.80;;
24585;SDS011;12743;52.262;6.172;2023-11-21T06:16:44;49.00;;;15.65;;
24585;SDS011;12743;52.262;6.172;2023-11-21T06:19:11;46.25;;;14.30;;
24585;SDS011;12743;52.262;6.172;2023-11-21T06:21:38;49.97;;;15.03;;
24585;SDS011;12743;52.262;6.172;2023-11-21T06:24:05;52.08;;;15.50;;
24585;SDS011;12743;52.262;6.172;2023-11-21T06:26:33;53.95;;;15.05;;
24585;SDS011;12743;52.262;6.172;2023-11-21T06:29:00;53.72;;;15.07;;
24585;SDS011;12743;52.262;6.172;2023-11-21T06:31:29;42.30;;;13.73;;
24585;SDS011;12743;52.262;6.172;2023-11-21T06:33:56;53.03;;;14.73;;
24585;SDS011;12743;52.262;6.172;2023-11-21T06:36:24;43.63;;;13.25;;
24585;SDS011;12743;52.262;6.172;2023-11-21T06:38:50;33.53;;;12.02;;
24585;SDS011;12743;52.262;6.172;2023-11-21T06:41:17;49.45;;;13.98;;
24585;SDS011;12743;52.262;6.172;2023-11-21T06:43:44;54.47;;;14.85;;
24585;SDS011;12743;52.262;6.172;2023-11-21T06:46:13;48.53;;;13.47;;
24585;SDS011;12743;52.262;6.172;2023-11-21T06:48:42;50.70;;;13.98;;
24585;SDS011;12743;52.262;6.172;2023-11-21T06:51:09;47.35;;;13.50;;
24585;SDS011;12743;52.262;6.172;2023-11-21T06:53:36;54.55;;;13.75;;
24585;SDS011;12743;52.262;6.172;2023-11-21T06:56:04;44.67;;;13.77;;
24585;SDS011;12743;52.262;6.172;2023-11-21T06:58:32;45.33;;;12.50;;
24585;SDS011;12743;52.262;6.172;2023-11-21T07:00:59;44.95;;;14.00;;
24585;SDS011;12743;52.262;6.172;2023-11-21T07:03:26;47.13;;;13.45;;
24585;SDS011;12743;52.262;6.172;2023-11-21T07:05:53;49.97;;;15.00;;
24585;SDS011;12743;52.262;6.172;2023-11-21T07:08:19;53.40;;;14.00;;
24585;SDS011;12743;52.262;6.172;2023-11-21T07:10:46;40.83;;;13.50;;
24585;SDS011;12743;52.262;6.172;2023-11-21T07:13:13;44.53;;;14.18;;
24585;SDS011;12743;52.262;6.172;2023-11-21T07:15:40;44.50;;;12.77;;
24585;SDS011;12743;52.262;6.172;2023-11-21T07:18:07;41.78;;;13.45;;
24585;SDS011;12743;52.262;6.172;2023-11-21T07:20:34;37.00;;;12.25;;
24585;SDS011;12743;52.262;6.172;2023-11-21T07:23:00;52.67;;;13.80;;
24585;SDS011;12743;52.262;6.172;2023-11-21T07:25:27;52.45;;;14.65;;
24585;SDS011;12743;52.262;6.172;2023-11-21T07:27:54;58.97;;;15.82;;
24585;SDS011;12743;52.262;6.172;2023-11-21T07:30:21;50.75;;;15.52;;
24585;SDS011;12743;52.262;6.172;2023-11-21T07:32:49;49.67;;;13.98;;
24585;SDS011;12743;52.262;6.172;2023-11-21T07:35:15;40.80;;;12.90;;
24585;SDS011;12743;52.262;6.172;2023-11-21T07:37:42;59.97;;;14.98;;
24585;SDS011;12743;52.262;6.172;2023-11-21T07:40:09;41.60;;;12.70;;
24585;SDS011;12743;52.262;6.172;2023-11-21T07:42:37;49.97;;;13.52;;
24585;SDS011;12743;52.262;6.172;2023-11-21T07:45:05;50.33;;;14.80;;
24585;SDS011;12743;52.262;6.172;2023-11-21T07:47:33;56.73;;;14.90;;
24585;SDS011;12743;52.262;6.172;2023-11-21T07:50:02;53.28;;;14.52;;
24585;SDS011;12743;52.262;6.172;2023-11-21T07:52:29;59.17;;;15.05;;
24585;SDS011;12743;52.262;6.172;2023-11-21T07:54:56;54.65;;;14.63;;
24585;SDS011;12743;52.262;6.172;2023-11-21T07:57:22;52.00;;;13.32;;
24585;SDS011;12743;52.262;6.172;2023-11-21T07:59:49;63.33;;;15.80;;
24585;SDS011;12743;52.262;6.172;2023-11-21T08:02:16;45.70;;;12.55;;
24585;SDS011;12743;52.262;6.172;2023-11-21T08:04:44;43.92;;;13.77;;
24585;SDS011;12743;52.262;6.172;2023-11-21T08:07:11;56.88;;;14.00;;
24585;SDS011;12743;52.262;6.172;2023-11-21T08:09:37;45.95;;;12.75;;
24585;SDS011;12743;52.262;6.172;2023-11-21T08:12:04;57.97;;;15.53;;
24585;SDS011;12743;52.262;6.172;2023-11-21T08:14:31;59.50;;;15.30;;
24585;SDS011;12743;52.262;6.172;2023-11-21T08:16:58;59.03;;;14.45;;
24585;SDS011;12743;52.262;6.172;2023-11-21T08:19:25;45.47;;;13.23;;
24585;SDS011;12743;52.262;6.172;2023-11-21T08:21:52;58.25;;;15.35;;
24585;SDS011;12743;52.262;6.172;2023-11-21T08:24:21;62.67;;;15.90;;
24585;SDS011;12743;52.262;6.172;2023-11-21T08:26:48;59.05;;;14.60;;
24585;SDS011;12743;52.262;6.172;2023-11-21T08:29:14;62.28;;;14.20;;
24585;SDS011;12743;52.262;6.172;2023-11-21T08:31:41;45.63;;;13.50;;
24585;SDS011;12743;52.262;6.172;2023-11-21T08:37:00;47.90;;;14.17;;
24585;SDS011;12743;52.262;6.172;2023-11-21T08:39:27;71.85;;;15.95;;
24585;SDS011;12743;52.262;6.172;2023-11-21T08:41:53;55.60;;;15.13;;
24585;SDS011;12743;52.262;6.172;2023-11-21T08:44:20;64.50;;;15.18;;
24585;SDS011;12743;52.262;6.172;2023-11-21T08:46:47;66.10;;;15.73;;
24585;SDS011;12743;52.262;6.172;2023-11-21T08:49:14;45.03;;;12.77;;
24585;SDS011;12743;52.262;6.172;2023-11-21T08:51:41;58.70;;;15.13;;
24585;SDS011;12743;52.262;6.172;2023-11-21T08:54:08;37.00;;;11.40;;
24585;SDS011;12743;52.262;6.172;2023-11-21T08:56:35;40.25;;;12.27;;
24585;SDS011;12743;52.262;6.172;2023-11-21T08:59:01;58.45;;;13.07;;
24585;SDS011;12743;52.262;6.172;2023-11-21T09:01:29;60.53;;;13.50;;
24585;SDS011;12743;52.262;6.172;2023-11-21T09:03:58;67.25;;;14.35;;
24585;SDS011;12743;52.262;6.172;2023-11-21T09:06:24;55.20;;;13.65;;
24585;SDS011;12743;52.262;6.172;2023-11-21T09:08:51;58.75;;;14.65;;
24585;SDS011;12743;52.262;6.172;2023-11-21T09:11:18;64.30;;;14.15;;
24585;SDS011;12743;52.262;6.172;2023-11-21T09:13:45;46.67;;;12.90;;
24585;SDS011;12743;52.262;6.172;2023-11-21T09:16:14;49.45;;;13.35;;
24585;SDS011;12743;52.262;6.172;2023-11-21T09:18:41;46.75;;;13.50;;
24585;SDS011;12743;52.262;6.172;2023-11-21T09:21:08;42.05;;;12.80;;
24585;SDS011;12743;52.262;6.172;2023-11-21T09:23:35;68.78;;;15.55;;
24585;SDS011;12743;52.262;6.172;2023-11-21T09:26:02;47.43;;;13.63;;
24585;SDS011;12743;52.262;6.172;2023-11-21T09:28:28;50.22;;;14.55;;
24585;SDS011;12743;52.262;6.172;2023-11-21T09:30:55;54.13;;;14.75;;
24585;SDS011;12743;52.262;6.172;2023-11-21T09:33:22;47.75;;;14.13;;
24585;SDS011;12743;52.262;6.172;2023-11-21T09:35:51;37.78;;;13.60;;
24585;SDS011;12743;52.262;6.172;2023-11-21T09:38:18;41.67;;;13.47;;
24585;SDS011;12743;52.262;6.172;2023-11-21T09:40:45;35.95;;;12.15;;
24585;SDS011;12743;52.262;6.172;2023-11-21T09:43:15;39.30;;;14.50;;
24585;SDS011;12743;52.262;6.172;2023-11-21T09:45:47;39.67;;;13.07;;
24585;SDS011;12743;52.262;6.172;2023-11-21T09:48:14;38.92;;;11.82;;
24585;SDS011;12743;52.262;6.172;2023-11-21T09:50:42;42.57;;;12.77;;
24585;SDS011;12743;52.262;6.172;2023-11-21T09:55:45;37.28;;;11.52;;
24585;SDS011;12743;52.262;6.172;2023-11-21T09:58:14;39.25;;;13.20;;
24585;SDS011;12743;52.262;6.172;2023-11-21T10:00:41;43.45;;;13.75;;
24585;SDS011;12743;52.262;6.172;2023-11-21T10:03:09;35.17;;;11.57;;
24585;SDS011;12743;52.262;6.172;2023-11-21T10:05:37;39.78;;;13.60;;
24585;SDS011;12743;52.262;6.172;2023-11-21T10:08:07;36.88;;;12.40;;
24585;SDS011;12743;52.262;6.172;2023-11-21T10:10:34;38.47;;;12.85;;
24585;SDS011;12743;52.262;6.172;2023-11-21T10:13:05;48.38;;;12.73;;
24585;SDS011;12743;52.262;6.172;2023-11-21T10:15:34;34.93;;;11.70;;
24585;SDS011;12743;52.262;6.172;2023-11-21T10:18:04;38.40;;;12.18;;
24585;SDS011;12743;52.262;6.172;2023-11-21T10:20:33;38.08;;;11.73;;
24585;SDS011;12743;52.262;6.172;2023-11-21T10:23:00;43.85;;;14.32;;
24585;SDS011;12743;52.262;6.172;2023-11-21T10:25:30;39.10;;;12.77;;
24585;SDS011;12743;52.262;6.172;2023-11-21T10:27:58;39.90;;;12.23;;
24585;SDS011;12743;52.262;6.172;2023-11-21T10:30:27;38.80;;;12.18;;
24585;SDS011;12743;52.262;6.172;2023-11-21T10:32:58;40.40;;;14.18;;
24585;SDS011;12743;52.262;6.172;2023-11-21T10:35:33;37.75;;;12.77;;
24585;SDS011;12743;52.262;6.172;2023-11-21T10:38:05;41.00;;;14.23;;
24585;SDS011;12743;52.262;6.172;2023-11-21T10:40:32;40.67;;;13.40;;
24585;SDS011;12743;52.262;6.172;2023-11-21T10:43:06;45.53;;;13.68;;
24585;SDS011;12743;52.262;6.172;2023-11-21T10:45:36;36.50;;;12.73;;
24585;SDS011;12743;52.262;6.172;2023-11-21T10:48:06;44.58;;;13.95;;
24585;SDS011;12743;52.262;6.172;2023-11-21T10:50:35;34.92;;;12.77;;
24585;SDS011;12743;52.262;6.172;2023-11-21T10:53:04;36.77;;;12.97;;
24585;SDS011;12743;52.262;6.172;2023-11-21T10:55:32;35.08;;;12.45;;
24585;SDS011;12743;52.262;6.172;2023-11-21T10:58:00;32.60;;;12.15;;
24585;SDS011;12743;52.262;6.172;2023-11-21T11:00:28;33.28;;;12.52;;
24585;SDS011;12743;52.262;6.172;2023-11-21T11:02:55;27.80;;;10.70;;
24585;SDS011;12743;52.262;6.172;2023-11-21T11:05:23;30.63;;;11.27;;
24585;SDS011;12743;52.262;6.172;2023-11-21T11:07:56;33.38;;;12.27;;
24585;SDS011;12743;52.262;6.172;2023-11-21T11:10:27;30.35;;;11.02;;
24585;SDS011;12743;52.262;6.172;2023-11-21T11:12:56;35.92;;;12.23;;
24585;SDS011;12743;52.262;6.172;2023-11-21T11:15:28;30.17;;;11.30;;
24585;SDS011;12743;52.262;6.172;2023-11-21T11:17:55;32.73;;;12.20;;
24585;SDS011;12743;52.262;6.172;2023-11-21T11:20:27;28.55;;;11.27;;
24585;SDS011;12743;52.262;6.172;2023-11-21T11:26:20;30.67;;;11.77;;
24585;SDS011;12743;52.262;6.172;2023-11-21T11:31:50;30.10;;;11.50;;
24585;SDS011;12743;52.262;6.172;2023-11-21T11:34:48;31.88;;;11.23;;
24585;SDS011;12743;52.262;6.172;2023-11-21T11:37:20;31.17;;;11.23;;
24585;SDS011;12743;52.262;6.172;2023-11-21T11:39:47;32.53;;;12.60;;
24585;SDS011;12743;52.262;6.172;2023-11-21T11:42:16;32.95;;;11.38;;
24585;SDS011;12743;52.262;6.172;2023-11-21T11:47:14;27.58;;;9.93;;
24585;SDS011;12743;52.262;6.172;2023-11-21T11:49:58;26.70;;;10.00;;
24585;SDS011;12743;52.262;6.172;2023-11-21T11:55:03;28.30;;;10.40;;
24585;SDS011;12743;52.262;6.172;2023-11-21T11:57:30;26.53;;;9.70;;
24585;SDS011;12743;52.262;6.172;2023-11-21T12:02:38;27.27;;;10.95;;
24585;SDS011;12743;52.262;6.172;2023-11-21T12:05:12;21.83;;;9.18;;
24585;SDS011;12743;52.262;6.172;2023-11-21T12:07:47;23.90;;;10.18;;
24585;SDS011;12743;52.262;6.172;2023-11-21T12:10:26;24.10;;;9.53;;
24585;SDS011;12743;52.262;6.172;2023-11-21T12:13:03;22.80;;;8.90;;
24585;SDS011;12743;52.262;6.172;2023-11-21T12:15:34;27.67;;;9.73;;
24585;SDS011;12743;52.262;6.172;2023-11-21T12:18:01;28.35;;;11.20;;
24585;SDS011;12743;52.262;6.172;2023-11-21T12:20:29;23.38;;;9.70;;
24585;SDS011;12743;52.262;6.172;2023-11-21T12:22:57;28.23;;;10.20;;
24585;SDS011;12743;52.262;6.172;2023-11-21T12:25:27;23.02;;;8.68;;
24585;SDS011;12743;52.262;6.172;2023-11-21T12:27:56;22.65;;;7.70;;
24585;SDS011;12743;52.262;6.172;2023-11-21T12:30:25;25.73;;;8.32;;
24585;SDS011;12743;52.262;6.172;2023-11-21T12:32:55;25.08;;;8.65;;
24585;SDS011;12743;52.262;6.172;2023-11-21T12:35:28;31.57;;;9.03;;
24585;SDS011;12743;52.262;6.172;2023-11-21T12:37:57;35.42;;;9.77;;
24585;SDS011;12743;52.262;6.172;2023-11-21T12:40:24;31.08;;;9.02;;
24585;SDS011;12743;52.262;6.172;2023-11-21T12:42:52;31.50;;;9.73;;
24585;SDS011;12743;52.262;6.172;2023-11-21T12:45:21;31.90;;;9.80;;
24585;SDS011;12743;52.262;6.172;2023-11-21T12:47:52;31.73;;;10.20;;
24585;SDS011;12743;52.262;6.172;2023-11-21T12:50:22;31.50;;;9.52;;
24585;SDS011;12743;52.262;6.172;2023-11-21T12:52:58;26.48;;;9.23;;
24585;SDS011;12743;52.262;6.172;2023-11-21T12:55:25;30.70;;;10.35;;
24585;SDS011;12743;52.262;6.172;2023-11-21T12:57:53;31.90;;;9.50;;
24585;SDS011;12743;52.262;6.172;2023-11-21T13:00:34;31.23;;;10.57;;
24585;SDS011;12743;52.262;6.172;2023-11-21T13:03:04;29.48;;;9.73;;
24585;SDS011;12743;52.262;6.172;2023-11-21T13:05:34;33.50;;;10.80;;
24585;SDS011;12743;52.262;6.172;2023-11-21T13:08:05;33.15;;;11.40;;
24585;SDS011;12743;52.262;6.172;2023-11-21T13:10:34;35.08;;;10.35;;
24585;SDS011;12743;52.262;6.172;2023-11-21T13:13:03;25.93;;;9.77;;
24585;SDS011;12743;52.262;6.172;2023-11-21T13:15:35;27.00;;;8.90;;
24585;SDS011;12743;52.262;6.172;2023-11-21T13:18:05;28.55;;;8.82;;
24585;SDS011;12743;52.262;6.172;2023-11-21T13:20:31;25.10;;;9.68;;
24585;SDS011;12743;52.262;6.172;2023-11-21T13:22:58;25.10;;;10.10;;
24585;SDS011;12743;52.262;6.172;2023-11-21T13:25:27;25.13;;;8.93;;
24585;SDS011;12743;52.262;6.172;2023-11-21T13:27:54;25.52;;;8.70;;
24585;SDS011;12743;52.262;6.172;2023-11-21T13:30:22;22.42;;;8.32;;
24585;SDS011;12743;52.262;6.172;2023-11-21T13:33:09;23.38;;;8.25;;
24585;SDS011;12743;52.262;6.172;2023-11-21T13:35:38;20.42;;;7.97;;
24585;SDS011;12743;52.262;6.172;2023-11-21T13:38:12;23.23;;;8.00;;
24585;SDS011;12743;52.262;6.172;2023-11-21T13:40:49;24.88;;;8.73;;
24585;SDS011;12743;52.262;6.172;2023-11-21T13:43:20;19.75;;;8.32;;
24585;SDS011;12743;52.262;6.172;2023-11-21T13:45:48;20.30;;;8.18;;
24585;SDS011;12743;52.262;6.172;2023-11-21T13:48:25;20.83;;;8.75;;
24585;SDS011;12743;52.262;6.172;2023-11-21T13:50:57;19.67;;;9.13;;
24585;SDS011;12743;52.262;6.172;2023-11-21T13:53:27;22.10;;;9.85;;
24585;SDS011;12743;52.262;6.172;2023-11-21T13:55:54;20.77;;;9.95;;
24585;SDS011;12743;52.262;6.172;2023-11-21T13:58:22;20.95;;;9.43;;
24585;SDS011;12743;52.262;6.172;2023-11-21T14:00:52;19.70;;;8.95;;
24585;SDS011;12743;52.262;6.172;2023-11-21T14:03:26;19.53;;;9.40;;
24585;SDS011;12743;52.262;6.172;2023-11-21T14:06:10;17.60;;;7.95;;
24585;SDS011;12743;52.262;6.172;2023-11-21T14:08:42;16.38;;;8.20;;
24585;SDS011;12743;52.262;6.172;2023-11-21T14:11:08;17.20;;;9.10;;
24585;SDS011;12743;52.262;6.172;2023-11-21T14:13:37;18.13;;;8.98;;
24585;SDS011;12743;52.262;6.172;2023-11-21T14:16:04;17.57;;;9.20;;
24585;SDS011;12743;52.262;6.172;2023-11-21T14:18:33;15.77;;;8.45;;
24585;SDS011;12743;52.262;6.172;2023-11-21T14:21:05;14.73;;;8.02;;
24585;SDS011;12743;52.262;6.172;2023-11-21T14:23:32;14.98;;;8.05;;
24585;SDS011;12743;52.262;6.172;2023-11-21T14:26:01;14.30;;;7.75;;
24585;SDS011;12743;52.262;6.172;2023-11-21T14:28:27;16.20;;;7.60;;
24585;SDS011;12743;52.262;6.172;2023-11-21T14:30:54;13.90;;;7.18;;
24585;SDS011;12743;52.262;6.172;2023-11-21T14:33:21;15.35;;;6.95;;
24585;SDS011;12743;52.262;6.172;2023-11-21T14:35:48;11.25;;;6.18;;
24585;SDS011;12743;52.262;6.172;2023-11-21T14:38:14;12.73;;;6.22;;
24585;SDS011;12743;52.262;6.172;2023-11-21T14:40:41;12.50;;;6.30;;
24585;SDS011;12743;52.262;6.172;2023-11-21T14:43:08;12.95;;;6.40;;
24585;SDS011;12743;52.262;6.172;2023-11-21T14:45:35;12.18;;;6.07;;
24585;SDS011;12743;52.262;6.172;2023-11-21T14:48:01;12.07;;;6.13;;
24585;SDS011;12743;52.262;6.172;2023-11-21T14:50:34;12.43;;;5.75;;